createdAt,value
2023-12-14T00:02:21.336Z,4.47
2023-12-14T00:04:53.627Z,4.47
2023-12-14T00:07:26.042Z,4.48
2023-12-14T00:09:58.944Z,4.48
2023-12-14T00:12:31.001Z,4.48
2023-12-14T00:15:03.150Z,4.47
2023-12-14T00:17:35.286Z,4.45
2023-12-14T00:20:10.458Z,4.45
2023-12-14T00:22:43.974Z,4.47
2023-12-14T00:25:16.494Z,4.49
2023-12-14T00:27:48.527Z,4.48
2023-12-14T00:30:20.959Z,4.46
2023-12-14T00:32:53.193Z,4.48
2023-12-14T00:35:25.361Z,4.49
2023-12-14T00:37:57.486Z,4.48
2023-12-14T00:40:29.691Z,4.50
2023-12-14T00:43:02.128Z,4.49
2023-12-14T00:45:34.627Z,4.48
2023-12-14T00:48:07.860Z,4.47
2023-12-14T00:51:17.172Z,4.50
2023-12-14T00:53:49.401Z,4.47
2023-12-14T00:56:22.160Z,4.47
2023-12-14T00:58:54.217Z,4.46
2023-12-14T01:01:26.596Z,4.43
2023-12-14T01:04:00.657Z,4.40
2023-12-14T01:06:32.624Z,4.38
2023-12-14T01:09:04.688Z,4.38
2023-12-14T01:11:37.060Z,4.34
2023-12-14T01:14:09.084Z,4.29
2023-12-14T01:16:41.118Z,4.26
2023-12-14T01:19:13.112Z,4.25
2023-12-14T01:21:45.202Z,4.21
2023-12-14T01:24:17.015Z,4.23
2023-12-14T01:26:48.933Z,4.22
2023-12-14T01:29:20.790Z,4.21
2023-12-14T01:31:52.756Z,4.18
2023-12-14T01:34:24.689Z,4.17
2023-12-14T01:36:56.697Z,4.17
2023-12-14T01:39:28.738Z,4.18
2023-12-14T01:42:00.713Z,4.19
2023-12-14T01:44:32.554Z,4.19
2023-12-14T01:47:04.698Z,4.20
2023-12-14T01:49:36.634Z,4.21
2023-12-14T01:52:09.673Z,4.22
2023-12-14T01:54:41.556Z,4.21
2023-12-14T01:57:14.020Z,4.21
2023-12-14T01:59:46.031Z,4.22
2023-12-14T02:02:18.074Z,4.21
2023-12-14T02:04:50.475Z,4.22
2023-12-14T02:07:22.402Z,4.19
2023-12-14T02:09:54.330Z,4.18
2023-12-14T02:12:26.983Z,4.17
2023-12-14T02:15:00.740Z,4.18
2023-12-14T02:17:32.639Z,4.18
2023-12-14T02:20:04.849Z,4.16
2023-12-14T02:22:51.373Z,4.14
2023-12-14T02:25:24.525Z,4.09
2023-12-14T02:27:57.081Z,4.05
2023-12-14T02:30:29.022Z,4.06
2023-12-14T02:33:01.335Z,4.06
2023-12-14T02:35:33.787Z,4.07
2023-12-14T02:38:06.136Z,4.09
2023-12-14T02:40:38.658Z,4.11
2023-12-14T02:43:10.535Z,4.12
2023-12-14T02:45:42.459Z,4.11
2023-12-14T02:48:14.840Z,4.09
2023-12-14T02:50:47.104Z,4.08
2023-12-14T02:53:19.446Z,4.07
2023-12-14T02:55:51.744Z,4.07
2023-12-14T02:58:23.720Z,4.08
2023-12-14T03:00:55.735Z,4.07
2023-12-14T03:03:27.768Z,4.10
2023-12-14T03:05:59.694Z,4.13
2023-12-14T03:08:31.706Z,4.13
2023-12-14T03:11:03.606Z,4.13
2023-12-14T03:13:36.141Z,4.11
2023-12-14T03:16:09.650Z,4.13
2023-12-14T03:18:41.561Z,4.12
2023-12-14T03:21:14.721Z,4.13
2023-12-14T03:23:46.750Z,4.13
2023-12-14T03:26:18.656Z,4.14
2023-12-14T03:28:50.604Z,4.16
2023-12-14T03:31:22.788Z,4.18
2023-12-14T03:33:55.286Z,4.15
2023-12-14T03:36:28.689Z,4.11
2023-12-14T03:39:00.964Z,4.11
2023-12-14T03:41:33.340Z,4.13
2023-12-14T03:44:05.373Z,4.13
2023-12-14T03:46:37.515Z,4.12
2023-12-14T03:49:10.191Z,4.11
2023-12-14T03:51:44.245Z,4.11
2023-12-14T03:54:16.188Z,4.10
2023-12-14T03:56:47.996Z,4.11
2023-12-14T03:59:19.863Z,4.10
2023-12-14T04:01:52.275Z,4.10
2023-12-14T04:04:24.573Z,4.11
2023-12-14T04:06:56.748Z,4.11
2023-12-14T04:09:28.612Z,4.11
2023-12-14T04:12:00.845Z,4.11
2023-12-14T04:14:32.842Z,4.14
2023-12-14T04:17:05.284Z,4.11
2023-12-14T04:19:37.271Z,4.10
2023-12-14T04:22:09.473Z,4.10
2023-12-14T04:24:41.733Z,4.12
2023-12-14T04:27:13.687Z,4.13
2023-12-14T04:29:46.049Z,4.14
2023-12-14T04:32:18.322Z,4.14
2023-12-14T04:34:50.173Z,4.12
2023-12-14T04:37:22.043Z,4.12
2023-12-14T04:39:54.558Z,4.11
2023-12-14T04:42:26.490Z,4.09
2023-12-14T04:44:58.701Z,4.08
2023-12-14T04:47:30.920Z,4.06
2023-12-14T04:50:03.497Z,4.04
2023-12-14T04:52:35.742Z,4.04
2023-12-14T04:55:09.825Z,4.05
2023-12-14T04:57:41.769Z,4.06
2023-12-14T05:00:16.705Z,4.07
2023-12-14T05:02:52.109Z,4.08
2023-12-14T05:05:24.478Z,4.08
2023-12-14T05:07:56.479Z,4.07
2023-12-14T05:10:29.054Z,4.07
2023-12-14T05:13:00.911Z,4.08
2023-12-14T05:15:33.034Z,4.07
2023-12-14T05:18:05.185Z,4.06
2023-12-14T05:20:38.332Z,4.10
2023-12-14T05:23:10.329Z,4.07
2023-12-14T05:25:42.436Z,4.07
2023-12-14T05:28:15.421Z,4.05
2023-12-14T05:30:47.662Z,4.03
2023-12-14T05:33:19.615Z,4.03
2023-12-14T05:35:52.069Z,4.03
2023-12-14T05:38:24.301Z,4.05
2023-12-14T05:40:56.276Z,4.08
2023-12-14T05:43:28.200Z,4.09
2023-12-14T05:46:00.600Z,4.12
2023-12-14T05:48:32.631Z,4.13
2023-12-14T05:51:05.735Z,4.13
2023-12-14T05:53:40.729Z,4.13
2023-12-14T05:56:14.525Z,4.12
2023-12-14T05:58:46.469Z,4.10
2023-12-14T06:01:20.505Z,4.09
2023-12-14T06:03:53.016Z,4.07
2023-12-14T06:06:25.116Z,4.06
2023-12-14T06:08:57.455Z,4.08
2023-12-14T06:11:29.698Z,4.11
2023-12-14T06:14:01.999Z,4.12
2023-12-14T06:16:34.045Z,4.10
2023-12-14T06:19:06.103Z,4.08
2023-12-14T06:21:38.305Z,4.09
2023-12-14T06:24:11.104Z,4.12
2023-12-14T06:26:45.985Z,4.13
2023-12-14T06:29:17.936Z,4.11
2023-12-14T06:31:50.548Z,4.09
2023-12-14T06:34:22.429Z,4.07
2023-12-14T06:36:54.865Z,4.05
2023-12-14T06:39:27.101Z,4.06
2023-12-14T06:41:58.939Z,4.09
2023-12-14T06:44:31.713Z,4.09
2023-12-14T06:47:03.948Z,4.11
2023-12-14T06:49:36.376Z,4.12
2023-12-14T06:52:09.365Z,4.12
2023-12-14T06:54:41.280Z,4.11
2023-12-14T06:57:14.062Z,4.12
2023-12-14T06:59:46.244Z,4.15
2023-12-14T07:02:18.531Z,4.17
2023-12-14T07:04:51.183Z,4.15
2023-12-14T07:07:23.259Z,4.12
2023-12-14T07:09:55.588Z,4.12
2023-12-14T07:12:27.561Z,4.15
2023-12-14T07:14:59.478Z,4.18
2023-12-14T07:17:31.567Z,4.19
2023-12-14T07:20:03.675Z,4.18
2023-12-14T07:22:36.478Z,4.18
2023-12-14T07:25:10.217Z,4.22
2023-12-14T07:27:42.229Z,4.25
2023-12-14T07:30:15.657Z,4.24
2023-12-14T07:32:47.881Z,4.22
2023-12-14T07:35:19.869Z,4.21
2023-12-14T07:37:51.998Z,4.24
2023-12-14T07:40:24.294Z,4.27
2023-12-14T07:42:56.263Z,4.31
2023-12-14T07:45:28.117Z,4.34
2023-12-14T07:48:00.354Z,4.34
2023-12-14T07:50:32.520Z,4.34
2023-12-14T07:53:05.399Z,4.34
2023-12-14T07:55:37.322Z,4.33
2023-12-14T07:58:09.594Z,4.33
2023-12-14T08:00:41.634Z,4.33
2023-12-14T08:03:13.852Z,4.32
2023-12-14T08:05:46.073Z,4.31
2023-12-14T08:08:18.228Z,4.31
2023-12-14T08:10:50.355Z,4.32
2023-12-14T08:13:22.375Z,4.34
2023-12-14T08:15:54.306Z,4.35
2023-12-14T08:18:26.358Z,4.36
2023-12-14T08:20:58.323Z,4.38
2023-12-14T08:23:31.274Z,4.40
2023-12-14T08:26:03.998Z,4.44
2023-12-14T08:28:36.096Z,4.47
2023-12-14T08:31:09.556Z,4.49
2023-12-14T08:33:43.832Z,4.49
2023-12-14T08:36:20.284Z,4.49
2023-12-14T08:38:52.251Z,4.50
2023-12-14T08:41:24.270Z,4.51
2023-12-14T08:43:56.990Z,4.52
2023-12-14T08:46:29.076Z,4.51
2023-12-14T08:49:01.169Z,4.50
2023-12-14T08:51:33.291Z,4.49
2023-12-14T08:54:05.482Z,4.50
2023-12-14T08:56:37.484Z,4.49
2023-12-14T08:59:10.419Z,4.51
2023-12-14T09:01:42.677Z,4.50
2023-12-14T09:04:15.700Z,4.49
2023-12-14T09:06:48.066Z,4.50
2023-12-14T09:09:20.625Z,4.49
2023-12-14T09:11:54.965Z,4.49
2023-12-14T09:14:27.628Z,4.51
2023-12-14T09:16:59.625Z,4.53
2023-12-14T09:19:33.344Z,4.55
2023-12-14T09:22:05.399Z,4.56
2023-12-14T09:24:37.324Z,4.56
2023-12-14T09:27:09.535Z,4.55
2023-12-14T09:29:41.562Z,4.55
2023-12-14T09:32:13.660Z,4.55
2023-12-14T09:34:45.928Z,4.57
2023-12-14T09:37:17.907Z,4.59
2023-12-14T09:39:49.905Z,4.61
2023-12-14T09:42:22.880Z,4.62
2023-12-14T09:44:57.552Z,4.64
2023-12-14T09:47:30.008Z,4.64
2023-12-14T09:50:04.271Z,4.67
2023-12-14T09:52:36.564Z,4.65
2023-12-14T09:55:09.725Z,4.67
2023-12-14T09:57:41.685Z,4.69
2023-12-14T10:00:34.382Z,4.72
2023-12-14T10:03:27.778Z,4.72
2023-12-14T10:06:03.313Z,4.72
2023-12-14T10:08:35.758Z,4.73
2023-12-14T10:11:18.786Z,4.73
2023-12-14T10:13:51.223Z,4.73
2023-12-14T10:16:36.432Z,4.74
2023-12-14T10:19:08.535Z,4.74
2023-12-14T10:21:40.786Z,4.76
2023-12-14T10:24:13.868Z,4.76
2023-12-14T10:26:48.600Z,4.74
2023-12-14T10:29:20.821Z,4.74
2023-12-14T10:31:53.419Z,4.77
2023-12-14T10:34:25.379Z,4.80
2023-12-14T10:36:57.396Z,4.81
2023-12-14T10:39:31.367Z,4.80
2023-12-14T10:42:15.744Z,4.81
2023-12-14T10:47:30.291Z,4.81
2023-12-14T10:50:04.254Z,4.81
2023-12-14T10:52:37.998Z,4.84
2023-12-14T10:55:17.747Z,4.86
2023-12-14T10:57:51.063Z,4.87
2023-12-14T11:00:23.358Z,4.85
2023-12-14T11:02:55.828Z,4.84
2023-12-14T11:05:31.293Z,4.84
2023-12-14T11:08:10.812Z,4.83
2023-12-14T11:10:44.931Z,4.82
2023-12-14T11:13:19.407Z,4.82
2023-12-14T11:15:53.955Z,4.82
2023-12-14T11:18:33.469Z,4.84
2023-12-14T11:21:05.793Z,4.84
2023-12-14T11:23:40.507Z,4.80
2023-12-14T11:26:14.263Z,4.77
2023-12-14T11:28:46.838Z,4.79
2023-12-14T11:31:19.077Z,4.80
2023-12-14T11:33:54.358Z,4.83
2023-12-14T11:36:27.828Z,4.84
2023-12-14T11:39:02.569Z,4.86
2023-12-14T11:41:35.348Z,4.88
2023-12-14T11:44:08.380Z,4.86
2023-12-14T11:46:42.167Z,4.84
2023-12-14T11:49:14.657Z,4.83
2023-12-14T11:51:49.336Z,4.83
2023-12-14T11:54:21.784Z,4.79
2023-12-14T11:56:54.996Z,4.77
2023-12-14T11:59:28.524Z,4.76
2023-12-14T12:02:02.457Z,4.75
2023-12-14T12:04:34.682Z,4.78
2023-12-14T12:07:10.211Z,4.77
2023-12-14T12:09:44.945Z,4.76
2023-12-14T12:12:17.159Z,4.74
2023-12-14T12:14:50.724Z,4.72
2023-12-14T12:17:23.043Z,4.71
2023-12-14T12:19:55.100Z,4.70
2023-12-14T12:22:27.000Z,4.67
2023-12-14T12:25:08.528Z,4.63
2023-12-14T12:27:48.349Z,4.60
2023-12-14T12:30:20.493Z,4.60
2023-12-14T12:32:53.450Z,4.58
2023-12-14T12:35:26.552Z,4.58
2023-12-14T12:37:58.702Z,4.54
2023-12-14T12:40:32.431Z,4.50
2023-12-14T12:43:04.719Z,4.51
2023-12-14T12:45:36.766Z,4.51
2023-12-14T12:48:09.960Z,4.52
2023-12-14T12:50:42.105Z,4.54
2023-12-14T12:53:14.320Z,4.56
2023-12-14T12:55:46.649Z,4.56
2023-12-14T12:58:18.626Z,4.55
2023-12-14T13:00:50.620Z,4.57
2023-12-14T13:03:22.591Z,4.55
2023-12-14T13:05:55.795Z,4.56
2023-12-14T13:08:27.846Z,4.55
2023-12-14T13:10:59.958Z,4.52
2023-12-14T13:13:32.460Z,4.47
2023-12-14T13:16:04.833Z,4.43
2023-12-14T13:18:36.915Z,4.43
2023-12-14T13:21:09.574Z,4.42
2023-12-14T13:23:42.205Z,4.42
2023-12-14T13:26:14.780Z,4.41
2023-12-14T13:28:47.047Z,4.40
2023-12-14T13:31:19.254Z,4.41
2023-12-14T13:33:51.501Z,4.43
2023-12-14T13:36:24.962Z,4.43
2023-12-14T13:38:57.617Z,4.42
2023-12-14T13:41:42.249Z,4.39
2023-12-14T13:44:22.454Z,4.37
2023-12-14T13:46:54.676Z,4.35
2023-12-14T13:49:26.924Z,4.36
2023-12-14T13:51:59.076Z,4.34
2023-12-14T13:54:31.364Z,4.32
2023-12-14T13:57:03.554Z,4.30
2023-12-14T13:59:35.569Z,4.26
2023-12-14T14:02:08.022Z,4.23
2023-12-14T14:04:40.224Z,4.24
2023-12-14T14:07:12.295Z,4.26
2023-12-14T14:09:45.453Z,4.27
2023-12-14T14:12:17.474Z,4.26
2023-12-14T14:14:49.761Z,4.26
2023-12-14T14:17:21.837Z,4.27
2023-12-14T14:19:54.157Z,4.28
2023-12-14T14:22:26.271Z,4.30
2023-12-14T14:24:58.643Z,4.32
2023-12-14T14:27:30.727Z,4.33
2023-12-14T14:30:04.931Z,4.32
2023-12-14T14:32:39.152Z,4.30
2023-12-14T14:35:12.146Z,4.25
2023-12-14T14:37:47.042Z,4.23
2023-12-14T14:40:19.629Z,4.25
2023-12-14T14:42:51.642Z,4.27
2023-12-14T14:45:23.726Z,4.28
2023-12-14T14:47:56.012Z,4.29
2023-12-14T14:50:28.356Z,4.30
2023-12-14T14:53:00.395Z,4.32
2023-12-14T14:55:34.178Z,4.32
2023-12-14T14:58:06.119Z,4.32
2023-12-14T15:00:40.262Z,4.32
2023-12-14T15:03:12.384Z,4.32
2023-12-14T15:05:44.693Z,4.31
2023-12-14T15:08:16.943Z,4.34
2023-12-14T15:10:48.993Z,4.39
2023-12-14T15:13:20.997Z,4.41
2023-12-14T15:15:52.948Z,4.42
2023-12-14T15:18:25.018Z,4.43
2023-12-14T15:20:57.009Z,4.45
2023-12-14T15:23:29.091Z,4.46
2023-12-14T15:26:01.062Z,4.44
2023-12-14T15:28:33.203Z,4.41
2023-12-14T15:31:05.346Z,4.42
2023-12-14T15:33:37.556Z,4.39
2023-12-14T15:36:10.542Z,4.39
2023-12-14T15:38:46.494Z,4.38
2023-12-14T15:41:19.096Z,4.38
2023-12-14T15:43:51.092Z,4.37
2023-12-14T15:46:23.018Z,4.38
2023-12-14T15:48:55.056Z,4.37
2023-12-14T15:51:27.928Z,4.37
2023-12-14T15:54:00.729Z,4.36
2023-12-14T15:56:35.599Z,4.37
2023-12-14T15:59:08.443Z,4.37
2023-12-14T16:01:42.171Z,4.34
2023-12-14T16:04:14.546Z,4.36
2023-12-14T16:06:46.572Z,4.33
2023-12-14T16:09:19.466Z,4.31
2023-12-14T16:11:51.563Z,4.28
2023-12-14T16:14:23.696Z,4.28
2023-12-14T16:16:55.717Z,4.25
2023-12-14T16:19:28.519Z,4.22
2023-12-14T16:22:00.470Z,4.16
2023-12-14T16:24:32.481Z,4.12
2023-12-14T16:27:04.629Z,4.14
2023-12-14T16:29:38.118Z,4.17
2023-12-14T16:32:10.672Z,4.18
2023-12-14T16:34:42.724Z,4.19
2023-12-14T16:37:14.913Z,4.16
2023-12-14T16:39:46.907Z,4.15
2023-12-14T16:42:18.935Z,4.13
2023-12-14T16:44:50.972Z,4.11
2023-12-14T16:47:23.043Z,4.07
2023-12-14T16:49:55.073Z,4.09
2023-12-14T16:52:27.080Z,4.06
2023-12-14T16:54:59.045Z,4.07
2023-12-14T16:57:31.323Z,4.06
2023-12-14T17:00:03.506Z,4.04
2023-12-14T17:02:35.792Z,4.03
2023-12-14T17:05:08.952Z,4.01
2023-12-14T17:07:40.910Z,3.98
2023-12-14T17:10:13.400Z,3.98
2023-12-14T17:12:45.340Z,4.00
2023-12-14T17:15:17.490Z,3.99
2023-12-14T17:17:49.448Z,4.00
2023-12-14T17:20:21.764Z,3.97
2023-12-14T17:22:53.793Z,3.99
2023-12-14T17:25:25.859Z,3.98
2023-12-14T17:27:57.899Z,3.97
2023-12-14T17:30:31.171Z,3.97
2023-12-14T17:33:06.862Z,3.96
2023-12-14T17:35:39.002Z,3.98
2023-12-14T17:38:10.977Z,3.97
2023-12-14T17:40:43.146Z,3.97
2023-12-14T17:43:15.109Z,3.99
2023-12-14T17:45:47.127Z,3.99
2023-12-14T17:48:19.222Z,3.99
2023-12-14T17:50:51.481Z,3.96
2023-12-14T17:53:23.488Z,3.97
2023-12-14T17:55:55.611Z,3.98
2023-12-14T17:58:27.828Z,3.97
2023-12-14T18:01:04.042Z,3.91
2023-12-14T18:03:37.272Z,3.87
2023-12-14T18:06:10.089Z,3.86
2023-12-14T18:08:42.145Z,3.86
2023-12-14T18:11:14.301Z,3.85
2023-12-14T18:13:46.321Z,3.83
2023-12-14T18:16:18.332Z,3.81
2023-12-14T18:18:50.340Z,3.81
2023-12-14T18:21:22.463Z,3.83
2023-12-14T18:23:54.406Z,3.85
2023-12-14T18:26:26.527Z,3.83
2023-12-14T18:28:58.586Z,3.82
2023-12-14T18:31:34.075Z,3.81
2023-12-14T18:34:08.629Z,3.78
2023-12-14T18:36:40.812Z,3.78
2023-12-14T18:39:12.877Z,3.78
2023-12-14T18:41:45.403Z,3.83
2023-12-14T18:44:17.333Z,3.86
2023-12-14T18:46:49.401Z,3.88
2023-12-14T18:49:21.524Z,3.87
2023-12-14T18:51:53.613Z,3.88
2023-12-14T18:54:25.944Z,3.85
2023-12-14T18:56:57.956Z,3.84
2023-12-14T18:59:29.928Z,3.86
2023-12-14T19:02:01.954Z,3.87
2023-12-14T19:04:33.928Z,3.87
2023-12-14T19:07:06.082Z,3.88
2023-12-14T19:09:38.032Z,3.87
2023-12-14T19:12:10.261Z,3.87
2023-12-14T19:14:42.233Z,3.86
2023-12-14T19:17:14.761Z,3.86
2023-12-14T19:19:46.781Z,3.84
2023-12-14T19:22:18.746Z,3.81
2023-12-14T19:24:50.685Z,3.76
2023-12-14T19:27:22.677Z,3.72
2023-12-14T19:29:54.704Z,3.73
2023-12-14T19:32:26.755Z,3.74
2023-12-14T19:34:59.394Z,3.75
2023-12-14T19:37:31.841Z,3.76
2023-12-14T19:40:06.104Z,3.76
2023-12-14T19:42:38.374Z,3.73
2023-12-14T19:45:11.589Z,3.73
2023-12-14T19:47:43.944Z,3.71
2023-12-14T19:50:16.365Z,3.70
2023-12-14T19:52:49.076Z,3.68
2023-12-14T19:55:21.124Z,3.67
2023-12-14T19:57:53.178Z,3.66
2023-12-14T20:00:25.263Z,3.61
2023-12-14T20:02:57.347Z,3.61
2023-12-14T20:05:29.462Z,3.59
2023-12-14T20:08:01.476Z,3.57
2023-12-14T20:10:48.635Z,3.54
2023-12-14T20:13:21.778Z,3.52
2023-12-14T20:15:53.742Z,3.47
2023-12-14T20:18:25.789Z,3.46
2023-12-14T20:20:57.853Z,3.44
2023-12-14T20:23:30.054Z,3.43
2023-12-14T20:26:02.096Z,3.44
2023-12-14T20:28:34.044Z,3.45
2023-12-14T20:31:06.423Z,3.45
2023-12-14T20:33:38.468Z,3.47
2023-12-14T20:36:12.337Z,3.48
2023-12-14T20:38:45.518Z,3.47
2023-12-14T20:41:17.650Z,3.45
2023-12-14T20:43:49.874Z,3.43
2023-12-14T20:46:21.850Z,3.41
2023-12-14T20:48:53.934Z,3.38
2023-12-14T20:51:26.190Z,3.35
2023-12-14T20:53:58.335Z,3.34
2023-12-14T20:56:30.315Z,3.31
2023-12-14T20:59:03.368Z,3.26
2023-12-14T21:01:35.663Z,3.20
2023-12-14T21:04:07.972Z,3.13
2023-12-14T21:06:40.023Z,3.10
2023-12-14T21:09:12.114Z,3.07
2023-12-14T21:11:44.041Z,3.03
2023-12-14T21:14:17.239Z,3.00
2023-12-14T21:16:52.655Z,2.98
2023-12-14T21:19:24.736Z,2.95
2023-12-14T21:21:59.964Z,2.94
2023-12-14T21:24:32.159Z,2.89
2023-12-14T21:27:18.307Z,2.89
2023-12-14T21:29:50.536Z,2.93
2023-12-14T21:32:22.564Z,2.88
2023-12-14T21:34:54.651Z,2.86
2023-12-14T21:37:26.901Z,2.80
2023-12-14T21:39:58.848Z,2.78
2023-12-14T21:42:30.874Z,2.76
2023-12-14T21:45:02.887Z,2.76
2023-12-14T21:47:36.419Z,2.74
2023-12-14T21:50:10.734Z,2.70
2023-12-14T21:52:42.810Z,2.63
2023-12-14T21:55:15.461Z,2.55
2023-12-14T21:57:47.607Z,2.50
2023-12-14T22:00:21.328Z,2.46
2023-12-14T22:02:53.283Z,2.43
2023-12-14T22:05:25.669Z,2.42
2023-12-14T22:07:57.687Z,2.39
2023-12-14T22:10:29.806Z,2.32
2023-12-14T22:13:01.968Z,2.29
2023-12-14T22:15:34.316Z,2.22
2023-12-14T22:18:07.290Z,2.19
2023-12-14T22:20:39.461Z,2.13
2023-12-14T22:23:11.506Z,2.10
2023-12-14T22:25:43.616Z,2.05
2023-12-14T22:28:15.587Z,2.06
2023-12-14T22:30:47.674Z,2.04
2023-12-14T22:33:42.100Z,2.02
2023-12-14T22:36:14.597Z,2.02
2023-12-14T22:38:46.580Z,2.03
2023-12-14T22:41:19.982Z,2.01
2023-12-14T22:43:51.989Z,1.98
2023-12-14T22:46:24.384Z,1.92
2023-12-14T22:48:56.534Z,1.92
2023-12-14T22:51:28.669Z,1.90
2023-12-14T22:54:00.739Z,1.86
2023-12-14T22:56:33.027Z,1.86
2023-12-14T22:59:07.563Z,1.85
2023-12-14T23:01:40.089Z,1.84
2023-12-14T23:04:12.154Z,1.86
2023-12-14T23:06:44.952Z,1.86
2023-12-14T23:09:18.716Z,1.84
2023-12-14T23:11:50.761Z,1.82
2023-12-14T23:14:22.759Z,1.81
2023-12-14T23:16:54.847Z,1.83
2023-12-14T23:19:26.954Z,1.84
2023-12-14T23:22:00.739Z,1.86
2023-12-14T23:24:32.874Z,1.87
2023-12-14T23:27:05.744Z,1.86
2023-12-14T23:29:37.900Z,1.86
2023-12-14T23:32:11.266Z,1.83
2023-12-14T23:34:43.300Z,1.82
2023-12-14T23:37:15.382Z,1.80
2023-12-14T23:39:47.577Z,1.80
2023-12-14T23:42:19.579Z,1.77
2023-12-14T23:44:51.550Z,1.75
2023-12-14T23:47:23.714Z,1.76
2023-12-14T23:49:56.023Z,1.74
2023-12-14T23:52:28.104Z,1.73
2023-12-14T23:55:00.263Z,1.74
2023-12-14T23:57:32.417Z,1.74
